»·PEaware :: N152CE KPMD-KVNY

N152CE :: KPMD-KVNY

FLIGHT INFORMATION

Flight Status: Arrived
Operator: Privately registered:
United States
More flights under this callsign
Pilot: Pedro T. (31982)
Aircraft: CESSNA 152 AEROBAT
(C152)
More flights by this aircraft type
Origin: KPMD Palmdale AF Plant 42
United States
Destination: KVNY Van Nuys
United States
More flights between these airports :: More routes between these airports
Route: PMD PMD240 LYNXX VNY329 VNY
File this flight plan on PilotEdge
Remarks: TEC route EDWP4
Altitude:
(Current/Filed)
8,000ft
Speed:
(Current/Filed)
90kts
Departed: 27-Mar-22 08:39 AM
Arrived: 27-Mar-22 09:13 AM
Distance/Time
Traveled:
32nm/0:34
Distance/Time
To Go:
Arrived

Flight Plot

Page will automatically refresh every two minutes.

Flight plan parsing failed; only flown route is shown


Map Options




Map Legend


Flown Route
Filed Route
Departure Airport
Arrival Airport
Navaid (VOR, NDB)
Fix

Horizontal Profiles

Position Reports

Time Latitude Longitude Heading Altitude Ground
Speed
27-Mar-22 07:27 34.637509 -118.086100 5 2504ft 0kts
27-Mar-22 07:28 34.637509 -118.086100 5 2504ft 0kts
27-Mar-22 07:29 34.637509 -118.086100 5 2504ft 0kts
27-Mar-22 07:30 34.637509 -118.086100 5 2504ft 0kts
27-Mar-22 07:31 34.637509 -118.086100 5 2504ft 0kts
27-Mar-22 07:32 34.637509 -118.086100 5 2504ft 0kts
27-Mar-22 07:33 34.637509 -118.086100 5 2504ft 0kts
27-Mar-22 07:34 34.637509 -118.086100 5 2504ft 0kts
27-Mar-22 07:35 34.637509 -118.086100 5 2504ft 0kts
27-Mar-22 07:36 34.637509 -118.086100 5 2504ft 0kts
27-Mar-22 07:37 34.637509 -118.086100 5 2504ft 0kts
27-Mar-22 07:38 34.637509 -118.086100 5 2504ft 0kts
27-Mar-22 07:39 34.637509 -118.086100 5 2504ft 0kts
27-Mar-22 07:40 34.637509 -118.086100 5 2504ft 0kts
27-Mar-22 07:41 34.637509 -118.086100 5 2504ft 0kts
27-Mar-22 07:42 34.637509 -118.086100 5 2504ft 0kts
27-Mar-22 07:43 34.637509 -118.086100 5 2504ft 0kts
27-Mar-22 07:44 34.637509 -118.086100 5 2504ft 0kts
27-Mar-22 07:45 34.637509 -118.086100 5 2504ft 0kts
27-Mar-22 07:46 34.637509 -118.086100 5 2504ft 0kts
27-Mar-22 07:47 34.637509 -118.086100 5 2504ft 0kts
27-Mar-22 07:48 34.637509 -118.086100 5 2504ft 0kts
27-Mar-22 07:49 34.637509 -118.086100 5 2504ft 0kts
27-Mar-22 07:50 34.637510 -118.086100 5 2504ft 0kts
27-Mar-22 07:51 34.637510 -118.086100 5 2504ft 0kts
27-Mar-22 07:52 34.637510 -118.086100 5 2504ft 0kts
27-Mar-22 07:53 34.637510 -118.086100 4 2504ft 0kts
27-Mar-22 07:54 34.637510 -118.086100 4 2504ft 0kts
27-Mar-22 07:55 34.637510 -118.086100 4 2504ft 0kts
27-Mar-22 07:56 34.637510 -118.086100 4 2504ft 0kts
27-Mar-22 07:57 34.637510 -118.086100 4 2504ft 0kts
27-Mar-22 07:58 34.637510 -118.086100 4 2504ft 0kts
27-Mar-22 07:59 34.637510 -118.086100 4 2504ft 0kts
27-Mar-22 08:00 34.637510 -118.086100 4 2504ft 0kts
27-Mar-22 08:01 34.637510 -118.086100 4 2504ft 0kts
27-Mar-22 08:02 34.637510 -118.086100 4 2504ft 0kts
27-Mar-22 08:03 34.637510 -118.086100 4 2504ft 0kts
27-Mar-22 08:04 34.637510 -118.086100 4 2504ft 0kts
27-Mar-22 08:05 34.637510 -118.086100 4 2504ft 0kts
27-Mar-22 08:06 34.637510 -118.086100 4 2504ft 0kts
27-Mar-22 08:07 34.637510 -118.086100 4 2504ft 0kts
27-Mar-22 08:08 34.637510 -118.086100 4 2504ft 0kts
27-Mar-22 08:09 34.637510 -118.086100 4 2504ft 0kts
27-Mar-22 08:10 34.637510 -118.086100 4 2504ft 0kts
27-Mar-22 08:11 34.637510 -118.086100 4 2504ft 0kts
27-Mar-22 08:12 34.637510 -118.086100 4 2504ft 0kts
27-Mar-22 08:13 34.637510 -118.086100 4 2504ft 0kts
27-Mar-22 08:14 34.637510 -118.086100 4 2504ft 0kts
27-Mar-22 08:15 34.637510 -118.086100 4 2504ft 0kts
27-Mar-22 08:16 34.637510 -118.086100 4 2504ft 0kts
27-Mar-22 08:17 34.637510 -118.086100 4 2504ft 0kts
27-Mar-22 08:18 34.637510 -118.086100 4 2504ft 0kts
27-Mar-22 08:19 34.637510 -118.086100 4 2504ft 0kts
27-Mar-22 08:20 34.637510 -118.086100 4 2504ft 0kts
27-Mar-22 08:21 34.637510 -118.086100 4 2504ft 0kts
27-Mar-22 08:22 34.637510 -118.086100 4 2504ft 0kts
27-Mar-22 08:23 34.637510 -118.086100 4 2504ft 0kts
27-Mar-22 08:24 34.637708 -118.086235 269 2504ft 0kts
27-Mar-22 08:25 34.636176 -118.086002 177 2510ft 4kts
27-Mar-22 08:26 34.634945 -118.085910 178 2516ft 1kts
27-Mar-22 08:27 34.634420 -118.083677 89 2515ft 15kts
27-Mar-22 08:28 34.633740 -118.082781 178 2514ft 0kts
27-Mar-22 08:29 34.633740 -118.082781 178 2514ft 0kts
27-Mar-22 08:30 34.633740 -118.082781 178 2514ft 0kts
27-Mar-22 08:31 34.633740 -118.082781 178 2514ft 0kts
27-Mar-22 08:32 34.633740 -118.082781 178 2514ft 0kts
27-Mar-22 08:33 34.633740 -118.082781 178 2514ft 0kts
27-Mar-22 08:34 34.633740 -118.082781 178 2514ft 0kts
27-Mar-22 08:35 34.633740 -118.082781 178 2514ft 0kts
27-Mar-22 08:36 34.633020 -118.082598 143 2515ft 6kts
27-Mar-22 08:37 34.632213 -118.083825 268 2517ft 16kts
27-Mar-22 08:38 34.630353 -118.104183 268 2959ft 61kts
27-Mar-22 08:39 34.625346 -118.123456 274 3478ft 63kts
27-Mar-22 08:40 34.631873 -118.136061 235 3850ft 67kts
27-Mar-22 08:41 34.621377 -118.152069 210 4352ft 67kts
27-Mar-22 08:42 34.609300 -118.165983 224 4875ft 64kts
27-Mar-22 08:43 34.602131 -118.184376 269 5349ft 68kts
27-Mar-22 08:44 34.599858 -118.206381 253 5740ft 68kts
27-Mar-22 08:45 34.595940 -118.228266 250 6227ft 67kts
27-Mar-22 08:46 34.591493 -118.249890 248 6512ft 65kts
27-Mar-22 08:47 34.586792 -118.270864 251 6782ft 63kts
27-Mar-22 08:48 34.579576 -118.290124 232 7040ft 60kts
27-Mar-22 08:49 34.577068 -118.311245 252 7334ft 65kts
27-Mar-22 08:50 34.574460 -118.331247 262 7764ft 54kts
27-Mar-22 08:51 34.571387 -118.349811 245 7877ft 56kts
27-Mar-22 08:52 34.565086 -118.366167 261 8029ft 54kts
27-Mar-22 08:53 34.560482 -118.384760 266 8168ft 66kts
27-Mar-22 08:54 34.557890 -118.404650 253 8469ft 66kts
27-Mar-22 08:55 34.551493 -118.431102 248 8258ft 89kts
27-Mar-22 08:56 34.546314 -118.458782 250 8300ft 79kts
27-Mar-22 08:57 34.540273 -118.483353 254 8323ft 74kts
27-Mar-22 08:58 34.526251 -118.498710 196 8238ft 77kts
27-Mar-22 08:59 34.505003 -118.506547 204 8231ft 81kts
27-Mar-22 09:00 34.476551 -118.518082 167 5617ft 120kts
27-Mar-22 09:02 34.449101 -118.513883 181 4927ft 89kts
27-Mar-22 09:03 34.427134 -118.512089 175 4951ft 73kts
27-Mar-22 09:04 34.404783 -118.508916 166 4907ft 85kts
27-Mar-22 09:05 34.380723 -118.507311 184 4494ft 90kts
27-Mar-22 09:06 34.355697 -118.504984 184 3976ft 90kts
27-Mar-22 09:07 34.330544 -118.502736 175 3299ft 97kts
27-Mar-22 09:08 34.304250 -118.501029 174 2762ft 95kts
27-Mar-22 09:09 34.279530 -118.497009 171 2409ft 85kts
27-Mar-22 09:10 34.259581 -118.494880 174 2133ft 66kts
27-Mar-22 09:11 34.241255 -118.493145 172 1785ft 66kts
27-Mar-22 09:12 34.222851 -118.491692 173 1196ft 67kts
27-Mar-22 09:13 34.209067 -118.490524 201 784ft 19kts
27-Mar-22 09:14 34.208050 -118.491207 259 783ft 2kts
27-Mar-22 09:15 34.211268 -118.491693 355 787ft 15kts
27-Mar-22 09:16 34.215391 -118.492167 351 792ft 14kts
27-Mar-22 09:17 34.217256 -118.493195 19 799ft 7kts
27-Mar-22 09:18 34.218344 -118.493065 69 803ft 0kts
27-Mar-22 09:19 34.218344 -118.493065 69 803ft 0kts
27-Mar-22 09:20 34.218344 -118.493065 69 803ft 0kts
27-Mar-22 09:21 34.218344 -118.493065 69 803ft 0kts
27-Mar-22 09:22 34.218344 -118.493065 69 803ft 0kts
27-Mar-22 09:23 34.218344 -118.493065 69 803ft 0kts
27-Mar-22 09:24 34.218344 -118.493065 69 803ft 0kts
27-Mar-22 09:24 34.218344 -118.493065 69 803ft 0kts
27-Mar-22 09:26 34.218344 -118.493065 69 803ft 0kts

Navigation Log

Ident Type
Flight plan parsing failed, navigation log unavailable